Time;durP1;ratioP1;P1;durP2;ratioP2;P2;SDS_P1;SDS_P2;PMS_P1;PMS_P2;Temp;Humidity;BMP_temperature;BMP_pressure;BME280_temperature;BME280_humidity;BME280_pressure;Samples;Min_cycle;Max_cycle;Signal;HPM_P1;HPM_P2
2023/03/01 00:02:22;;;;;;;2.60;2.40;;;;;;;2.41;76.73;95964.03;4334629;32;20221;-53
2023/03/01 00:04:48;;;;;;;3.07;2.97;;;;;;;2.53;76.53;95970.06;4339135;32;20329;-55
2023/03/01 00:07:15;;;;;;;2.10;2.00;;;;;;;2.53;76.37;95961.41;4344468;32;20338;-54
2023/03/01 00:09:41;;;;;;;2.87;2.70;;;;;;;2.55;75.89;95957.53;4346320;32;20286;-55
2023/03/01 00:12:09;;;;;;;4.07;3.87;;;;;;;2.62;76.10;95958.25;4340355;32;20348;-53
2023/03/01 00:14:36;;;;;;;4.27;4.07;;;;;;;2.53;76.52;95948.31;4346257;32;20254;-56
2023/03/01 00:17:02;;;;;;;3.17;3.07;;;;;;;2.49;76.51;95955.84;4330125;32;20349;-54
2023/03/01 00:19:27;;;;;;;4.10;3.90;;;;;;;2.55;76.81;95956.75;4324191;32;20301;-56
2023/03/01 00:21:52;;;;;;;3.93;3.73;;;;;;;2.54;76.67;95949.91;4347459;32;20180;-53
2023/03/01 00:24:19;;;;;;;3.47;3.27;;;;;;;2.46;76.85;95948.44;4302830;32;20296;-56
2023/03/01 00:26:46;;;;;;;5.63;5.23;;;;;;;2.52;76.30;95958.00;4347759;32;20185;-53
2023/03/01 00:29:15;;;;;;;3.43;3.13;;;;;;;2.53;76.40;95956.97;4315331;32;20286;-56
2023/03/01 00:31:40;;;;;;;3.70;3.43;;;;;;;2.57;76.57;95960.75;4331753;32;20403;-54
2023/03/01 00:34:05;;;;;;;3.13;2.93;;;;;;;2.71;76.11;95959.47;4335427;32;20281;-54
2023/03/01 00:36:35;;;;;;;3.90;3.70;;;;;;;2.79;75.49;95953.13;4311898;32;20223;-55
2023/03/01 00:39:04;;;;;;;3.40;3.30;;;;;;;2.71;75.87;95946.37;4339437;32;20190;-54
2023/03/01 00:41:30;;;;;;;4.27;3.97;;;;;;;2.49;76.55;95942.75;4340853;32;20294;-58
2023/03/01 00:43:57;;;;;;;6.47;4.53;;;;;;;2.47;77.29;95947.44;4345080;32;20285;-55
2023/03/01 00:46:25;;;;;;;2.87;2.77;;;;;;;2.53;76.89;95943.09;4343797;32;20285;-56
2023/03/01 00:48:50;;;;;;;3.27;3.17;;;;;;;2.69;76.75;95943.22;4354522;32;20293;-54
2023/03/01 00:51:24;;;;;;;4.13;3.73;;;;;;;2.57;76.59;95933.75;4319010;32;20295;-56
2023/03/01 00:53:59;;;;;;;3.10;2.87;;;;;;;2.48;77.21;95935.12;4348381;32;20320;-56
2023/03/01 00:56:26;;;;;;;3.77;3.60;;;;;;;2.45;77.06;95933.75;4340386;32;20301;-55
2023/03/01 00:58:53;;;;;;;3.10;3.00;;;;;;;2.42;77.43;95934.22;4325405;32;20329;-55
2023/03/01 01:01:21;;;;;;;3.47;3.13;;;;;;;2.32;77.82;95929.53;4315044;33;20401;-57
2023/03/01 01:04:08;;;;;;;3.27;3.17;;;;;;;2.50;76.91;95923.37;4309678;33;20394;-56
2023/03/01 01:06:44;;;;;;;3.80;3.60;;;;;;;2.52;76.62;95921.34;4338781;32;20295;-55
2023/03/01 01:09:16;;;;;;;3.47;3.10;;;;;;;2.47;76.54;95929.09;4321415;33;20296;-55
2023/03/01 01:11:46;;;;;;;4.83;4.33;;;;;;;2.41;76.98;95920.31;4333902;32;20320;-55
2023/03/01 01:14:13;;;;;;;4.43;4.13;;;;;;;2.28;77.57;95917.94;4333478;32;20285;-55
2023/03/01 01:16:40;;;;;;;4.17;3.97;;;;;;;2.41;77.21;95914.28;4339483;32;20286;-54
2023/03/01 01:19:08;;;;;;;2.80;2.70;;;;;;;2.46;76.82;95916.22;4355891;32;20340;-56
2023/03/01 01:21:36;;;;;;;5.53;5.03;;;;;;;2.45;77.30;95910.19;4346251;32;20282;-55
2023/03/01 01:24:03;;;;;;;3.60;3.30;;;;;;;2.44;76.76;95903.38;4309288;33;20328;-54
2023/03/01 01:26:31;;;;;;;4.30;3.73;;;;;;;2.25;76.98;95902.69;4337728;32;20301;-57
2023/03/01 01:29:00;;;;;;;2.80;2.70;;;;;;;2.28;77.37;95898.81;4362636;32;20285;-56
2023/03/01 01:31:27;;;;;;;3.43;3.23;;;;;;;2.29;77.04;95895.94;4357249;32;20281;-55
2023/03/01 01:33:55;;;;;;;3.60;3.40;;;;;;;2.35;77.03;95904.72;4327303;32;20323;-56
2023/03/01 01:36:22;;;;;;;4.17;3.83;;;;;;;2.17;76.96;95891.72;4343901;32;20289;-55
2023/03/01 01:38:47;;;;;;;2.90;2.70;;;;;;;2.34;77.23;95882.19;4304906;32;20317;-55
2023/03/01 01:41:14;;;;;;;4.13;3.83;;;;;;;2.26;77.80;95885.16;4302492;33;20282;-56
2023/03/01 01:44:27;;;;;;;3.70;3.50;;;;;;;2.47;76.94;95879.34;4331505;32;20198;-55
2023/03/01 01:47:03;;;;;;;3.80;3.60;;;;;;;2.23;76.54;95883.00;4336493;32;20311;-56
2023/03/01 01:49:51;;;;;;;7.40;4.63;;;;;;;2.36;77.01;95880.13;4342126;32;20347;-54
2023/03/01 01:52:39;;;;;;;4.23;3.93;;;;;;;2.43;76.26;95870.34;4346519;32;20315;-55
2023/03/01 01:55:11;;;;;;;3.40;3.20;;;;;;;2.54;76.27;95871.38;4313887;32;20365;-54
2023/03/01 01:57:41;;;;;;;2.73;2.63;;;;;;;2.55;75.57;95863.28;4325181;32;20282;-53
2023/03/01 02:00:15;;;;;;;2.60;2.50;;;;;;;2.38;76.04;95873.66;4327257;32;20289;-55
2023/03/01 02:02:45;;;;;;;3.27;3.17;;;;;;;2.24;76.31;95871.50;4325586;32;20328;-55
2023/03/01 02:05:17;;;;;;;3.53;3.23;;;;;;;2.20;77.43;95870.34;4328431;32;20301;-52
2023/03/01 02:07:43;;;;;;;5.40;4.87;;;;;;;2.43;76.39;95859.88;4361408;32;20367;-53
2023/03/01 02:10:09;;;;;;;4.00;3.80;;;;;;;2.41;75.57;95852.25;4340210;32;20301;-54
2023/03/01 02:12:38;;;;;;;3.60;3.30;;;;;;;2.33;76.41;95857.81;4351274;32;20189;-54
2023/03/01 02:15:04;;;;;;;2.37;2.27;;;;;;;2.35;76.14;95854.97;4328182;32;20356;-54
2023/03/01 02:17:30;;;;;;;3.70;3.50;;;;;;;2.21;76.37;95861.47;4341654;32;20324;-51
2023/03/01 02:20:15;;;;;;;4.63;4.43;;;;;;;2.20;76.45;95859.88;4368899;32;20304;-53
2023/03/01 02:22:45;;;;;;;5.20;4.80;;;;;;;2.19;76.94;95855.66;4345400;32;20351;-53
2023/03/01 02:25:26;;;;;;;2.63;2.47;;;;;;;2.26;76.59;95851.12;4352992;32;20336;-56
2023/03/01 02:28:33;;;;;;;5.00;4.70;;;;;;;2.32;76.30;95852.81;4368532;32;20292;-52
2023/03/01 02:33:48;;;;;;;5.07;4.07;;;;;;;2.22;77.03;95848.16;4358951;32;20311;-56
2023/03/01 02:36:41;;;;;;;3.73;3.37;;;;;;;2.17;77.39;95845.44;4357057;32;20282;-55
2023/03/01 02:39:14;;;;;;;4.57;4.33;;;;;;;2.23;77.29;95851.59;4353241;32;20295;-56
2023/03/01 02:41:43;;;;;;;3.40;3.30;;;;;;;2.24;76.97;95855.78;4374644;32;20298;-53
2023/03/01 02:44:09;;;;;;;4.80;3.70;;;;;;;2.08;77.68;95848.63;4340429;32;20300;-56
2023/03/01 02:46:46;;;;;;;3.10;3.00;;;;;;;2.08;77.72;95853.88;4325898;32;20309;-54
2023/03/01 02:49:31;;;;;;;3.00;2.87;;;;;;;2.17;77.50;95845.44;4336706;32;20193;-56
2023/03/01 02:52:17;;;;;;;3.63;3.43;;;;;;;2.10;77.35;95839.50;4371043;32;20336;-56
2023/03/01 02:55:11;;;;;;;4.73;4.53;;;;;;;1.95;77.20;95837.34;4328735;32;20298;-53
2023/03/01 02:57:40;;;;;;;4.53;3.37;;;;;;;1.76;77.94;95838.44;4364120;32;20310;-56
2023/03/01 03:00:09;;;;;;;3.17;2.97;;;;;;;1.76;77.38;95843.69;4347993;32;20350;-55
2023/03/01 03:02:35;;;;;;;3.83;3.53;;;;;;;1.74;77.67;95835.25;4309357;32;20267;-55
2023/03/01 03:05:14;;;;;;;4.18;3.28;;;;;;;1.89;77.72;95834.81;4339422;32;20182;-55
2023/03/01 03:07:45;;;;;;;3.00;2.80;;;;;;;1.88;77.33;95831.41;4344740;32;20189;-56
2023/03/01 03:10:14;;;;;;;4.05;3.75;;;;;;;1.83;78.20;95833.94;4331185;32;20324;-55
2023/03/01 03:12:41;;;;;;;3.55;3.37;;;;;;;1.88;78.23;95838.47;4332304;32;20215;-56
2023/03/01 03:15:09;;;;;;;2.97;2.87;;;;;;;1.85;78.40;95842.34;4326281;32;20208;-56
2023/03/01 03:17:38;;;;;;;4.63;4.33;;;;;;;1.85;78.08;95842.34;4354861;32;20285;-54
2023/03/01 03:20:25;;;;;;;2.70;2.60;;;;;;;1.90;78.33;95845.06;4356159;32;20315;-52
2023/03/01 03:22:52;;;;;;;3.50;2.47;;;;;;;1.93;77.92;95838.59;4363076;32;20284;-54
2023/03/01 03:25:20;;;;;;;3.92;3.12;;;;;;;1.87;77.83;95842.88;4366066;32;20311;-56
2023/03/01 03:27:46;;;;;;;3.13;3.03;;;;;;;1.91;77.82;95836.19;4346664;32;20211;-56
2023/03/01 03:30:17;;;;;;;2.50;2.43;;;;;;;1.97;77.33;95839.72;4346953;32;20313;-56
2023/03/01 03:32:53;;;;;;;5.57;4.50;;;;;;;1.93;77.39;95838.59;4327890;32;20353;-55
2023/03/01 03:35:25;;;;;;;2.37;2.37;;;;;;;2.03;77.32;95826.56;4325089;32;20352;-54
2023/03/01 03:38:02;;;;;;;4.53;4.13;;;;;;;2.08;76.60;95831.06;4343805;32;20535;-55
2023/03/01 03:40:31;;;;;;;3.20;3.00;;;;;;;2.02;76.76;95832.81;4314372;32;20278;-54
2023/03/01 03:42:56;;;;;;;2.73;2.60;;;;;;;2.13;76.09;95823.34;4330302;32;20347;-56
2023/03/01 03:45:22;;;;;;;2.67;2.57;;;;;;;2.06;75.61;95828.72;4355162;32;20286;-55
2023/03/01 03:47:48;;;;;;;10.80;3.57;;;;;;;1.86;76.63;95825.63;4345858;32;20267;-55
2023/03/01 03:50:16;;;;;;;2.37;2.20;;;;;;;1.77;76.83;95829.59;4333701;32;20189;-52
2023/03/01 03:52:42;;;;;;;3.90;3.70;;;;;;;1.79;76.69;95832.78;4335284;32;20324;-55
2023/03/01 03:55:10;;;;;;;3.87;3.57;;;;;;;1.78;76.69;95820.72;4334871;32;20313;-55
2023/03/01 03:57:41;;;;;;;2.33;2.27;;;;;;;1.78;76.48;95814.69;4332381;32;20201;-54
2023/03/01 04:00:15;;;;;;;3.30;3.10;;;;;;;1.76;76.30;95814.91;4322600;32;20334;-56
2023/03/01 04:02:42;;;;;;;2.90;2.80;;;;;;;1.79;76.46;95811.84;4320563;32;20333;-54
2023/03/01 04:05:11;;;;;;;2.97;2.87;;;;;;;1.78;75.99;95810.25;4341149;32;20311;-56
2023/03/01 04:07:39;;;;;;;2.87;2.53;;;;;;;1.71;76.58;95806.94;4351487;32;20227;-55
2023/03/01 04:10:09;;;;;;;3.57;3.33;;;;;;;1.83;76.06;95809.59;4343974;32;20303;-56
2023/03/01 04:12:37;;;;;;;4.37;4.07;;;;;;;1.84;75.96;95806.75;4332812;32;20335;-55
2023/03/01 04:15:12;;;;;;;6.10;5.60;;;;;;;1.68;76.57;95810.00;4319074;32;20205;-56
2023/03/01 04:17:39;;;;;;;2.23;2.13;;;;;;;1.85;76.02;95804.94;4364313;32;20280;-54
2023/03/01 04:20:06;;;;;;;3.87;3.60;;;;;;;1.93;75.79;95809.81;4373487;32;20294;-55
2023/03/01 04:22:35;;;;;;;5.07;4.57;;;;;;;1.78;75.84;95812.06;4368176;32;20264;-58
2023/03/01 04:25:06;;;;;;;4.43;4.03;;;;;;;1.81;75.93;95807.19;4346255;32;20311;-56
2023/03/01 04:27:33;;;;;;;3.47;3.37;;;;;;;1.89;75.02;95800.81;4332584;32;20313;-55
2023/03/01 04:29:58;;;;;;;4.33;4.03;;;;;;;1.85;75.17;95805.72;4362600;32;20327;-56
2023/03/01 04:32:25;;;;;;;4.80;4.50;;;;;;;1.78;75.05;95807.66;4366758;32;20285;-56
2023/03/01 04:34:52;;;;;;;4.27;4.07;;;;;;;1.70;75.47;95808.75;4373783;32;20199;-56
2023/03/01 04:37:17;;;;;;;3.70;3.50;;;;;;;1.67;75.36;95797.94;4354483;32;20344;-52
2023/03/01 04:39:47;;;;;;;3.63;3.43;;;;;;;1.86;75.05;95802.09;4374146;32;20196;-56
2023/03/01 04:42:13;;;;;;;2.53;2.43;;;;;;;1.87;74.76;95808.87;4362531;32;20181;-54
2023/03/01 04:44:41;;;;;;;6.07;4.77;;;;;;;1.78;74.66;95805.03;4370980;32;20338;-54
2023/03/01 04:47:07;;;;;;;8.90;4.20;;;;;;;1.82;74.91;95790.50;4351984;32;20300;-55
2023/03/01 04:49:33;;;;;;;5.27;4.30;;;;;;;1.63;75.39;95802.84;4353422;32;20300;-56
2023/03/01 04:52:03;;;;;;;4.83;4.53;;;;;;;1.81;74.67;95803.78;4322557;32;20281;-57
2023/03/01 04:54:32;;;;;;;4.80;4.20;;;;;;;1.81;74.84;95794.13;4334394;32;20252;-54
2023/03/01 04:56:58;;;;;;;2.90;2.70;;;;;;;1.82;75.02;95792.31;4355009;32;20296;-53
2023/03/01 04:59:23;;;;;;;5.63;4.00;;;;;;;1.80;75.04;95797.75;4328159;32;20310;-53
2023/03/01 05:01:52;;;;;;;3.27;3.07;;;;;;;1.56;76.07;95796.94;4361838;32;20267;-54
2023/03/01 05:04:18;;;;;;;2.97;2.83;;;;;;;1.57;76.13;95792.50;4327724;32;20202;-53
2023/03/01 05:06:44;;;;;;;2.73;2.63;;;;;;;1.75;75.83;95789.00;4331565;32;20294;-54
2023/03/01 05:09:11;;;;;;;4.00;3.80;;;;;;;1.35;76.82;95785.19;4319824;32;20192;-55
2023/03/01 05:11:39;;;;;;;4.83;4.57;;;;;;;1.52;76.61;95789.75;4343618;32;20348;-56
2023/03/01 05:14:07;;;;;;;3.63;3.47;;;;;;;1.49;76.51;95785.75;4342985;32;20304;-54
2023/03/01 05:16:34;;;;;;;3.20;3.10;;;;;;;1.46;76.81;95788.03;4318056;33;20298;-55
2023/03/01 05:19:00;;;;;;;3.20;2.70;;;;;;;1.43;76.59;95789.28;4330295;32;20337;-56
2023/03/01 05:21:26;;;;;;;3.97;3.78;;;;;;;1.38;76.32;95784.72;4355795;32;20205;-56
2023/03/01 05:23:52;;;;;;;2.93;2.73;;;;;;;1.42;76.56;95790.31;4328092;32;20181;-55
2023/03/01 05:26:27;;;;;;;3.20;3.03;;;;;;;1.35;76.89;95779.94;4351248;32;20184;-55
2023/03/01 05:28:56;;;;;;;3.35;3.17;;;;;;;1.39;76.75;95780.31;4339433;32;20248;-55
2023/03/01 05:31:24;;;;;;;2.30;2.20;;;;;;;1.37;76.68;95788.38;4345322;32;20190;-55
2023/03/01 05:33:51;;;;;;;3.10;2.95;;;;;;;1.36;76.62;95781.53;4337567;32;20475;-55
2023/03/01 05:36:18;;;;;;;6.57;4.10;;;;;;;1.30;76.55;95790.28;4348057;32;20197;-55
2023/03/01 05:38:43;;;;;;;3.35;3.03;;;;;;;1.27;76.82;95784.69;4325707;32;20186;-57
2023/03/01 05:41:16;;;;;;;2.23;2.17;;;;;;;1.21;77.05;95783.00;4335611;32;20255;-55
2023/03/01 05:43:44;;;;;;;2.60;2.45;;;;;;;1.14;76.95;95783.06;4300120;33;20217;-56
2023/03/01 05:46:13;;;;;;;3.10;2.90;;;;;;;1.18;77.01;95773.78;4342190;32;20209;-52
2023/03/01 05:48:39;;;;;;;4.25;3.17;;;;;;;1.12;77.37;95779.09;4352809;32;20197;-55
2023/03/01 05:51:06;;;;;;;3.10;2.83;;;;;;;1.24;77.27;95777.31;4331219;32;20251;-53
2023/03/01 05:53:33;;;;;;;3.75;3.58;;;;;;;1.12;77.63;95776.47;4324614;32;20245;-55
2023/03/01 05:55:59;;;;;;;2.53;2.33;;;;;;;1.08;77.37;95770.87;4327768;32;20181;-56
2023/03/01 05:58:24;;;;;;;3.60;3.37;;;;;;;1.23;77.40;95766.06;4351937;32;20207;-56
2023/03/01 06:00:51;;;;;;;2.50;2.33;;;;;;;1.14;77.19;95772.63;4345453;32;20252;-54
2023/03/01 06:03:17;;;;;;;3.08;2.97;;;;;;;1.30;76.94;95774.59;4332622;32;20207;-56
2023/03/01 06:05:44;;;;;;;2.72;2.62;;;;;;;1.18;76.91;95778.19;4323124;32;20201;-55
2023/03/01 06:08:12;;;;;;;3.45;3.28;;;;;;;1.16;77.36;95778.44;4327457;32;20200;-57
2023/03/01 06:10:40;;;;;;;5.05;3.95;;;;;;;1.09;77.92;95782.12;4333990;32;20189;-54
2023/03/01 06:13:07;;;;;;;2.62;2.53;;;;;;;1.00;77.78;95781.66;4343349;32;20221;-56
2023/03/01 06:15:37;;;;;;;3.33;3.15;;;;;;;0.78;78.19;95789.19;4357240;32;20197;-54
2023/03/01 06:18:02;;;;;;;3.92;3.72;;;;;;;0.82;78.89;95790.34;4304065;32;20217;-56
2023/03/01 06:20:35;;;;;;;2.93;2.83;;;;;;;0.99;78.11;95798.34;4348225;32;20250;-56
2023/03/01 06:23:01;;;;;;;3.33;3.17;;;;;;;1.04;77.90;95798.47;4329637;32;20236;-54
2023/03/01 06:25:28;;;;;;;3.75;3.55;;;;;;;1.22;77.37;95793.22;4333379;32;20283;-55
2023/03/01 06:27:54;;;;;;;3.85;3.62;;;;;;;1.06;77.41;95783.38;4350184;32;20220;-55
2023/03/01 06:30:22;;;;;;;3.25;3.05;;;;;;;1.16;77.48;95801.13;4333367;32;20347;-55
2023/03/01 06:32:49;;;;;;;4.32;4.03;;;;;;;1.15;77.45;95784.66;4348236;32;20214;-57
2023/03/01 06:35:17;;;;;;;3.80;3.50;;;;;;;1.09;77.28;95782.12;4330962;32;20203;-55
2023/03/01 06:37:44;;;;;;;3.45;3.25;;;;;;;1.23;77.14;95791.41;4283991;33;20253;-53
2023/03/01 06:40:13;;;;;;;2.87;2.73;;;;;;;1.13;77.03;95788.50;4330132;32;20324;-56
2023/03/01 06:42:41;;;;;;;3.55;3.37;;;;;;;1.24;76.71;95793.00;4335063;32;20298;-55
2023/03/01 06:45:08;;;;;;;4.03;3.83;;;;;;;1.23;76.69;95792.19;4334026;32;20193;-56
2023/03/01 06:47:34;;;;;;;4.22;3.85;;;;;;;1.24;76.98;95788.56;4343582;32;20247;-57
2023/03/01 06:50:00;;;;;;;3.17;2.70;;;;;;;1.21;76.21;95783.78;4331598;32;20197;-58
2023/03/01 06:52:27;;;;;;;2.80;2.65;;;;;;;1.06;77.49;95788.59;4320453;32;20212;-56
2023/03/01 06:54:53;;;;;;;3.35;3.15;;;;;;;0.82;78.51;95789.53;4329991;32;20239;-56
2023/03/01 06:57:20;;;;;;;2.75;2.65;;;;;;;1.03;78.02;95792.47;4318855;32;20293;-56
2023/03/01 06:59:47;;;;;;;3.60;3.40;;;;;;;1.08;78.21;95789.19;4315779;32;20193;-55
2023/03/01 07:02:13;;;;;;;2.30;2.30;;;;;;;1.29;77.66;95785.25;4292945;32;20194;-56
2023/03/01 07:04:39;;;;;;;5.40;5.00;;;;;;;1.24;77.13;95795.63;4322844;32;20202;-55
2023/03/01 07:07:06;;;;;;;2.50;2.40;;;;;;;1.26;76.98;95799.56;4344508;32;20232;-54
2023/03/01 07:09:32;;;;;;;5.60;3.33;;;;;;;1.21;76.80;95801.28;4334656;32;20256;-59
2023/03/01 07:11:58;;;;;;;5.30;5.00;;;;;;;4.61;100.00;95769.19;4340687;32;20296;-57
2023/03/01 07:14:26;;;;;;;6.10;5.63;;;;;;;7.53;100.00;95775.94;4359433;32;20193;-57
2023/03/01 07:16:53;;;;;;;4.20;4.00;;;;;;;7.79;81.72;95774.09;4322358;32;20208;-57
2023/03/01 07:19:21;;;;;;;4.70;4.30;;;;;;;8.76;70.86;95756.25;4310316;32;20372;-57
2023/03/01 07:21:47;;;;;;;3.80;3.60;;;;;;;9.45;63.88;95762.50;4347696;32;20308;-57
2023/03/01 07:24:14;;;;;;;4.17;3.87;;;;;;;9.98;60.18;95758.13;4341593;32;20285;-57
2023/03/01 07:26:40;;;;;;;4.33;3.93;;;;;;;8.68;49.33;95770.03;4339023;32;20262;-55
2023/03/01 07:29:09;;;;;;;4.47;4.10;;;;;;;6.01;54.95;95780.59;4358993;32;20347;-54
2023/03/01 07:31:34;;;;;;;3.27;3.13;;;;;;;4.58;60.06;95780.19;4343938;32;20204;-54
2023/03/01 07:34:00;;;;;;;3.33;3.13;;;;;;;3.32;65.60;95779.91;4331626;32;20339;-54
2023/03/01 07:36:26;;;;;;;4.03;3.77;;;;;;;2.80;67.99;95781.81;4313870;32;20291;-54
2023/03/01 07:38:55;;;;;;;4.53;4.20;;;;;;;2.57;69.38;95782.69;4332551;32;20259;-54
2023/03/01 07:41:22;;;;;;;4.43;4.23;;;;;;;2.07;71.51;95785.03;4348651;32;20369;-54
2023/03/01 07:43:47;;;;;;;4.67;4.33;;;;;;;2.01;72.05;95781.50;4337054;32;20361;-54
2023/03/01 07:46:13;;;;;;;4.60;4.30;;;;;;;1.74;73.41;95780.34;4338147;32;20289;-55
2023/03/01 07:48:40;;;;;;;4.33;4.13;;;;;;;1.76;74.16;95773.06;4344944;32;20221;-53
2023/03/01 07:51:07;;;;;;;5.23;4.70;;;;;;;1.77;74.13;95776.50;4291902;32;20290;-55
2023/03/01 07:53:34;;;;;;;3.97;3.77;;;;;;;1.62;74.59;95767.28;4347967;32;20290;-52
2023/03/01 07:56:02;;;;;;;2.83;2.73;;;;;;;1.71;75.45;95772.94;4341048;32;20298;-54
2023/03/01 07:58:27;;;;;;;3.40;3.07;;;;;;;1.79;74.70;95771.84;4336051;32;20300;-54
2023/03/01 08:00:52;;;;;;;3.43;3.30;;;;;;;1.88;74.93;95771.25;4359732;32;20304;-54
2023/03/01 08:03:19;;;;;;;3.67;2.73;;;;;;;1.81;74.91;95762.75;4360252;32;20224;-54
2023/03/01 08:05:44;;;;;;;4.63;4.17;;;;;;;1.70;74.61;95773.97;4364276;32;20199;-56
2023/03/01 08:08:11;;;;;;;3.93;3.73;;;;;;;1.45;75.18;95773.41;4342321;32;20292;-55
2023/03/01 08:10:36;;;;;;;3.67;3.47;;;;;;;1.34;75.83;95773.13;4367150;32;20194;-51
2023/03/01 08:13:02;;;;;;;3.13;3.03;;;;;;;1.27;76.12;95771.63;4371573;32;20211;-51
2023/03/01 08:15:27;;;;;;;5.07;3.67;;;;;;;1.30;76.36;95765.97;4343044;32;20192;-54
2023/03/01 08:17:56;;;;;;;3.70;3.50;;;;;;;1.50;75.97;95761.22;4336786;32;20189;-54
2023/03/01 08:20:21;;;;;;;2.87;2.67;;;;;;;1.64;75.60;95762.63;4345170;32;20186;-54
2023/03/01 08:22:47;;;;;;;4.67;4.23;;;;;;;1.65;75.01;95760.81;4371525;32;20269;-54
2023/03/01 08:25:13;;;;;;;3.73;3.30;;;;;;;1.59;75.54;95764.31;4352150;32;20198;-53
2023/03/01 08:27:38;;;;;;;5.80;4.60;;;;;;;1.69;75.35;95767.94;4337882;32;20300;-55
2023/03/01 08:30:10;;;;;;;3.80;3.67;;;;;;;1.71;75.07;95755.44;4356353;32;20238;-52
2023/03/01 08:32:37;;;;;;;4.15;3.95;;;;;;;1.69;74.86;95759.31;4339614;32;20280;-53
2023/03/01 08:35:06;;;;;;;2.03;2.00;;;;;;;1.62;74.91;95766.47;4358021;32;20203;-54
2023/03/01 08:37:33;;;;;;;3.58;3.42;;;;;;;1.63;75.16;95757.63;4358138;32;20256;-52
2023/03/01 08:39:59;;;;;;;5.40;5.00;;;;;;;1.74;75.06;95756.81;4340095;32;20197;-54
2023/03/01 08:42:29;;;;;;;4.43;4.03;;;;;;;1.82;74.99;95761.72;4368677;32;20315;-51
2023/03/01 08:44:56;;;;;;;7.10;5.30;;;;;;;1.76;74.44;95751.34;4342072;32;20353;-53
2023/03/01 08:47:23;;;;;;;3.92;3.72;;;;;;;1.88;74.65;95734.63;4349998;32;20282;-55
2023/03/01 08:49:50;;;;;;;3.17;3.08;;;;;;;2.02;74.06;95733.41;4354492;32;20238;-56
2023/03/01 08:52:17;;;;;;;11.38;5.50;;;;;;;1.93;73.87;95734.75;4345997;32;20189;-56
2023/03/01 08:54:44;;;;;;;2.80;2.60;;;;;;;1.80;74.70;95740.22;4298752;32;20217;-53
2023/03/01 08:57:12;;;;;;;4.97;4.67;;;;;;;1.97;74.25;95735.88;4360501;32;20190;-50
2023/03/01 08:59:37;;;;;;;4.03;3.83;;;;;;;2.04;73.95;95739.19;4345443;32;20288;-54
2023/03/01 09:02:12;;;;;;;3.80;3.53;;;;;;;2.15;73.58;95736.78;4376591;32;20308;-54
2023/03/01 09:04:40;;;;;;;4.30;3.47;;;;;;;2.18;73.23;95737.12;4351990;32;20223;-55
2023/03/01 09:07:06;;;;;;;4.80;4.30;;;;;;;2.39;72.52;95733.88;4361962;32;20277;-55
2023/03/01 09:09:31;;;;;;;5.50;5.13;;;;;;;2.46;72.34;95728.53;4362267;32;20325;-53
2023/03/01 09:11:58;;;;;;;8.03;5.10;;;;;;;2.43;72.37;95726.38;4339767;32;20200;-53
2023/03/01 09:14:25;;;;;;;4.60;4.23;;;;;;;2.74;71.62;95728.53;4344282;32;20232;-56
2023/03/01 09:16:54;;;;;;;3.90;3.73;;;;;;;2.62;71.29;95733.03;4333492;32;20352;-53
2023/03/01 09:19:21;;;;;;;4.37;4.17;;;;;;;2.64;71.84;95727.56;4352881;32;20428;-55
2023/03/01 09:21:55;;;;;;;4.47;4.27;;;;;;;2.77;71.44;95729.91;4351749;32;20328;-56
2023/03/01 09:24:22;;;;;;;3.20;3.10;;;;;;;2.86;70.62;95720.66;4338365;32;20297;-55
2023/03/01 09:26:49;;;;;;;5.67;5.27;;;;;;;2.76;71.11;95723.88;4366099;32;20312;-56
2023/03/01 09:29:16;;;;;;;4.57;4.20;;;;;;;2.83;70.84;95720.31;4368854;32;20289;-53
2023/03/01 09:31:42;;;;;;;4.87;4.63;;;;;;;2.95;71.50;95716.59;4340827;32;20344;-51
2023/03/01 09:34:10;;;;;;;4.20;4.00;;;;;;;2.91;70.71;95717.34;4349902;32;20294;-54
2023/03/01 09:36:35;;;;;;;3.67;3.47;;;;;;;2.96;70.77;95712.16;4341053;32;20304;-54
2023/03/01 09:39:02;;;;;;;3.70;3.50;;;;;;;3.05;70.44;95716.78;4349183;32;20288;-53
2023/03/01 09:42:01;;;;;;;4.57;4.27;;;;;;;2.67;70.66;95720.03;4351103;32;20184;-55
2023/03/01 09:44:36;;;;;;;4.30;3.90;;;;;;;2.79;70.67;95727.84;4362975;32;20289;-53
2023/03/01 09:47:03;;;;;;;3.90;3.60;;;;;;;2.65;71.22;95716.84;4333191;32;20328;-54
2023/03/01 09:49:35;;;;;;;8.07;5.17;;;;;;;2.87;70.83;95706.53;4340953;32;20307;-52
2023/03/01 09:52:23;;;;;;;5.10;4.87;;;;;;;3.03;70.42;95710.19;4343552;32;20288;-53
2023/03/01 09:54:53;;;;;;;4.87;4.50;;;;;;;3.05;70.06;95718.63;4355796;32;20339;-54
2023/03/01 09:57:58;;;;;;;5.63;5.23;;;;;;;2.82;70.84;95711.66;4346587;32;20288;-54
2023/03/01 10:00:38;;;;;;;3.87;3.67;;;;;;;2.81;71.10;95719.75;4332217;32;20359;-55
2023/03/01 10:03:27;;;;;;;5.13;4.83;;;;;;;2.75;71.32;95714.41;4322415;32;20293;-53
2023/03/01 10:06:00;;;;;;;4.70;4.40;;;;;;;2.92;70.94;95716.28;4362159;32;20285;-53
2023/03/01 10:08:35;;;;;;;4.97;3.20;;;;;;;2.71;71.26;95708.03;4358005;32;20281;-51
2023/03/01 10:11:04;;;;;;;5.37;3.53;;;;;;;2.87;71.19;95705.72;4340022;32;20343;-54
2023/03/01 10:13:52;;;;;;;5.63;5.33;;;;;;;2.95;70.91;95706.12;4371011;32;20277;-55
2023/03/01 10:16:58;;;;;;;5.80;5.00;;;;;;;3.02;70.87;95700.75;4362539;32;20284;-53
2023/03/01 10:19:33;;;;;;;4.90;4.60;;;;;;;2.94;70.89;95706.34;4356009;32;20356;-54
2023/03/01 10:22:15;;;;;;;4.10;3.83;;;;;;;2.82;71.30;95698.56;4365922;32;20302;-53
2023/03/01 10:24:40;;;;;;;3.67;3.47;;;;;;;3.01;72.02;95699.94;4363697;32;20285;-56
2023/03/01 10:27:23;;;;;;;3.23;3.03;;;;;;;3.13;70.87;95686.75;4365779;32;20301;-55
2023/03/01 10:30:32;;;;;;;5.37;4.97;;;;;;;3.00;70.84;95698.34;4364596;32;20193;-55
2023/03/01 10:32:58;;;;;;;4.67;4.37;;;;;;;3.04;70.34;95693.44;4292847;33;20291;-53
2023/03/01 10:35:29;;;;;;;7.73;6.83;;;;;;;2.76;70.41;95700.28;4293547;33;20309;-54
2023/03/01 10:38:13;;;;;;;6.60;4.03;;;;;;;2.91;70.62;95694.53;4313070;32;20188;-54
2023/03/01 10:40:59;;;;;;;5.07;4.60;;;;;;;3.16;70.03;95699.41;4353635;32;20289;-55
2023/03/01 10:43:31;;;;;;;3.57;3.43;;;;;;;3.53;69.01;95693.72;4363111;32;20340;-50
2023/03/01 10:46:24;;;;;;;5.20;4.80;;;;;;;3.56;68.42;95691.38;4370553;32;20332;-52
2023/03/01 10:49:16;;;;;;;4.73;4.33;;;;;;;3.33;68.58;95686.28;4334025;32;20392;-52
2023/03/01 10:51:46;;;;;;;4.83;4.63;;;;;;;3.18;69.15;95683.44;4359352;32;20371;-53
2023/03/01 10:54:32;;;;;;;5.07;4.53;;;;;;;3.12;69.58;95685.97;4356471;32;20285;-52
2023/03/01 10:57:01;;;;;;;7.90;5.90;;;;;;;3.32;69.10;95669.00;4352808;32;20285;-52
2023/03/01 10:59:38;;;;;;;6.87;4.60;;;;;;;3.23;69.15;95662.56;4356235;32;20285;-52
2023/03/01 11:02:27;;;;;;;4.37;4.17;;;;;;;3.29;69.40;95664.25;4372299;32;20288;-52
2023/03/01 11:05:23;;;;;;;5.93;5.53;;;;;;;3.38;69.83;95650.47;4342831;32;20333;-52
2023/03/01 11:07:57;;;;;;;6.47;5.97;;;;;;;3.49;69.28;95645.38;4321113;32;20289;-54
2023/03/01 11:10:28;;;;;;;4.40;4.20;;;;;;;3.47;69.10;95640.38;4329190;32;20289;-51
2023/03/01 11:13:08;;;;;;;5.17;4.87;;;;;;;3.57;68.83;95629.22;4340652;32;20376;-54
2023/03/01 11:15:33;;;;;;;5.97;5.53;;;;;;;3.69;68.28;95629.94;4329105;32;20364;-54
2023/03/01 11:17:59;;;;;;;5.30;4.97;;;;;;;3.61;67.74;95625.09;4351977;32;20277;-53
2023/03/01 11:20:39;;;;;;;3.37;3.17;;;;;;;3.75;67.45;95611.37;4336390;32;20288;-52
2023/03/01 11:23:14;;;;;;;4.70;4.37;;;;;;;3.52;67.51;95606.38;4312353;32;20296;-52
2023/03/01 11:25:43;;;;;;;5.83;5.07;;;;;;;3.85;67.52;95610.72;4353669;32;20292;-54
2023/03/01 11:28:16;;;;;;;11.63;4.80;;;;;;;3.94;67.54;95604.03;4330176;32;20302;-55
2023/03/01 11:30:57;;;;;;;5.23;4.87;;;;;;;3.90;67.60;95602.13;4333960;32;20343;-54
2023/03/01 11:33:46;;;;;;;6.10;5.70;;;;;;;3.91;67.48;95599.28;4350869;32;20395;-53
2023/03/01 11:36:32;;;;;;;7.27;6.43;;;;;;;3.96;67.59;95596.69;4350352;32;20371;-53
2023/03/01 11:39:08;;;;;;;4.47;4.23;;;;;;;4.00;68.53;95591.75;4353940;32;20337;-52
2023/03/01 11:41:39;;;;;;;4.97;4.43;;;;;;;4.05;67.30;95589.19;4333685;32;20284;-55
2023/03/01 11:44:28;;;;;;;6.63;6.23;;;;;;;4.00;67.58;95592.53;4349232;32;20396;-54
2023/03/01 11:47:24;;;;;;;5.47;5.17;;;;;;;3.88;67.38;95586.63;4342722;32;20292;-52
2023/03/01 11:50:24;;;;;;;7.27;6.60;;;;;;;3.90;67.55;95568.81;4370186;32;20461;-56
2023/03/01 11:53:05;;;;;;;6.07;5.67;;;;;;;3.98;67.90;95572.81;4351022;32;20412;-54
2023/03/01 11:55:48;;;;;;;6.67;6.07;;;;;;;4.20;67.24;95572.81;4342043;32;20366;-55
2023/03/01 11:58:28;;;;;;;6.83;5.67;;;;;;;4.25;67.61;95578.09;4358254;32;20284;-55
2023/03/01 12:01:24;;;;;;;4.13;3.83;;;;;;;4.26;66.71;95572.63;4333212;32;20293;-55
2023/03/01 12:04:20;;;;;;;4.47;4.17;;;;;;;4.21;67.24;95575.19;4301964;33;20420;-54